Hong Kong, China
Current Conditions -  °F | °C
As of 6:00 PM on Friday 28 Nov 2014 (Local Time) from VHHH Reporting Station
Scattered Clouds Scattered Clouds  
Wind Chill: 77°   Ceiling: Unl
Heat Index: 79°   Visibility: 6mi
Dew Point: 68°   Wind: 6mph
Humidity: 74%   Direction: NA
Pressure: 29.91"   Gusts: NA
Location:  22.28°N, 114.15°E
Report Text: VHHH 281000Z VRB05KT 9999 FEW018 SCT030 25/20 Q1013 NOSIG
Loading
Personal Weather Stations






























Interactive Weather Map New forecast layout! Learn more

10-Day Weather Forecast

Advertisements
Track Severe Weather on mobile